KCHD

Chandler Municipal Airport

Chandler, Arizona, USA
METAR KCHD 222047Z 17007KT 10SM BKN070 30/14 A2985
Observed Flight Rules
Oct-22 @ 20:47 UTC (an hour ago) Visual Flight Rules
Wind Visibility Clouds
170° at 7 knots 10 miles
  • Broken at 7,000' AGL
Temperatures Readings
Current 30°C / 86°F
Dewpoint 14°C / 57°F
Humidity 38%
Altimeter 29.85" Hg
Pressure 1011 hPa
Elevation 379
METAR KCHD 222047Z 17007KT 10SM BKN070 30/14 A2985
Observed Flight Rules
Oct-22 @ 20:47 UTC
(an hour ago)
VFR
Wind Visibility
170° at 7 knots 10 miles
Clouds
  • Broken at 7,000' AGL
Temperature Dewpoint
30°C / 86°F 14°C / 57°F
Humidity Altimeter Pressure
38% 29.85" Hg 1011 hPa